sensor_id;sensor_type;location;lat;lon;timestamp;P1;durP1;ratioP1;P2;durP2;ratioP2
78410;SDS011;67706;51.074;-1.796;2023-03-31T00:01:50;12.35;;;1.88;;
78410;SDS011;67706;51.074;-1.796;2023-03-31T00:04:19;15.55;;;2.25;;
78410;SDS011;67706;51.074;-1.796;2023-03-31T00:06:48;15.68;;;2.22;;
78410;SDS011;67706;51.074;-1.796;2023-03-31T00:09:18;10.13;;;2.00;;
78410;SDS011;67706;51.074;-1.796;2023-03-31T00:11:46;14.48;;;1.95;;
78410;SDS011;67706;51.074;-1.796;2023-03-31T00:14:13;7.70;;;1.30;;
78410;SDS011;67706;51.074;-1.796;2023-03-31T00:16:42;8.75;;;1.65;;
78410;SDS011;67706;51.074;-1.796;2023-03-31T00:19:10;10.30;;;1.35;;
78410;SDS011;67706;51.074;-1.796;2023-03-31T00:21:43;13.32;;;2.15;;
78410;SDS011;67706;51.074;-1.796;2023-03-31T00:24:10;12.88;;;2.40;;
78410;SDS011;67706;51.074;-1.796;2023-03-31T00:26:38;22.52;;;2.70;;
78410;SDS011;67706;51.074;-1.796;2023-03-31T00:29:05;24.52;;;3.25;;
78410;SDS011;67706;51.074;-1.796;2023-03-31T00:31:33;13.82;;;2.58;;
78410;SDS011;67706;51.074;-1.796;2023-03-31T00:34:00;13.25;;;2.53;;
78410;SDS011;67706;51.074;-1.796;2023-03-31T00:36:27;14.07;;;1.67;;
78410;SDS011;67706;51.074;-1.796;2023-03-31T00:38:56;10.05;;;1.77;;
78410;SDS011;67706;51.074;-1.796;2023-03-31T00:41:24;14.13;;;2.40;;
78410;SDS011;67706;51.074;-1.796;2023-03-31T00:44:04;10.82;;;1.77;;
78410;SDS011;67706;51.074;-1.796;2023-03-31T00:49:07;17.80;;;2.58;;
78410;SDS011;67706;51.074;-1.796;2023-03-31T00:51:40;15.10;;;2.72;;
78410;SDS011;67706;51.074;-1.796;2023-03-31T00:54:11;14.02;;;2.50;;
78410;SDS011;67706;51.074;-1.796;2023-03-31T00:56:40;10.25;;;1.65;;
78410;SDS011;67706;51.074;-1.796;2023-03-31T00:59:12;8.45;;;1.25;;
78410;SDS011;67706;51.074;-1.796;2023-03-31T01:01:41;7.20;;;1.58;;
78410;SDS011;67706;51.074;-1.796;2023-03-31T01:04:10;12.25;;;1.90;;
78410;SDS011;67706;51.074;-1.796;2023-03-31T01:06:42;18.73;;;2.25;;
78410;SDS011;67706;51.074;-1.796;2023-03-31T01:09:15;9.10;;;1.25;;
78410;SDS011;67706;51.074;-1.796;2023-03-31T01:11:42;17.25;;;2.33;;
78410;SDS011;67706;51.074;-1.796;2023-03-31T01:14:11;11.07;;;2.35;;
78410;SDS011;67706;51.074;-1.796;2023-03-31T01:16:38;19.25;;;3.25;;
78410;SDS011;67706;51.074;-1.796;2023-03-31T01:19:06;19.83;;;2.53;;
78410;SDS011;67706;51.074;-1.796;2023-03-31T01:21:49;17.00;;;2.95;;
78410;SDS011;67706;51.074;-1.796;2023-03-31T01:24:58;16.90;;;2.20;;
78410;SDS011;67706;51.074;-1.796;2023-03-31T01:27:58;21.27;;;2.60;;
78410;SDS011;67706;51.074;-1.796;2023-03-31T01:30:43;21.25;;;2.60;;
78410;SDS011;67706;51.074;-1.796;2023-03-31T01:33:45;15.02;;;2.40;;
78410;SDS011;67706;51.074;-1.796;2023-03-31T01:36:31;12.82;;;1.70;;
78410;SDS011;67706;51.074;-1.796;2023-03-31T01:42:23;13.10;;;2.00;;
78410;SDS011;67706;51.074;-1.796;2023-03-31T01:44:57;20.95;;;3.70;;
78410;SDS011;67706;51.074;-1.796;2023-03-31T01:47:30;18.30;;;3.22;;
78410;SDS011;67706;51.074;-1.796;2023-03-31T01:50:05;22.90;;;3.15;;
78410;SDS011;67706;51.074;-1.796;2023-03-31T01:52:37;20.27;;;4.32;;
78410;SDS011;67706;51.074;-1.796;2023-03-31T01:55:08;9.27;;;2.30;;
78410;SDS011;67706;51.074;-1.796;2023-03-31T01:57:44;20.13;;;3.08;;
78410;SDS011;67706;51.074;-1.796;2023-03-31T02:00:14;27.30;;;3.58;;
78410;SDS011;67706;51.074;-1.796;2023-03-31T02:02:46;9.75;;;2.70;;
78410;SDS011;67706;51.074;-1.796;2023-03-31T02:05:16;8.05;;;1.58;;
78410;SDS011;67706;51.074;-1.796;2023-03-31T02:07:46;14.88;;;2.70;;
78410;SDS011;67706;51.074;-1.796;2023-03-31T02:10:18;14.25;;;2.50;;
78410;SDS011;67706;51.074;-1.796;2023-03-31T02:12:47;14.10;;;1.70;;
78410;SDS011;67706;51.074;-1.796;2023-03-31T02:15:19;11.27;;;1.95;;
78410;SDS011;67706;51.074;-1.796;2023-03-31T02:17:51;5.68;;;1.52;;
78410;SDS011;67706;51.074;-1.796;2023-03-31T02:20:22;7.97;;;2.05;;
78410;SDS011;67706;51.074;-1.796;2023-03-31T02:22:53;13.40;;;1.70;;
78410;SDS011;67706;51.074;-1.796;2023-03-31T02:25:22;20.77;;;3.42;;
78410;SDS011;67706;51.074;-1.796;2023-03-31T02:27:54;15.95;;;2.78;;
78410;SDS011;67706;51.074;-1.796;2023-03-31T02:30:26;12.45;;;2.20;;
78410;SDS011;67706;51.074;-1.796;2023-03-31T02:32:58;17.15;;;3.00;;
78410;SDS011;67706;51.074;-1.796;2023-03-31T02:35:25;12.52;;;2.60;;
78410;SDS011;67706;51.074;-1.796;2023-03-31T02:37:52;17.20;;;2.10;;
78410;SDS011;67706;51.074;-1.796;2023-03-31T02:40:20;20.08;;;2.65;;
78410;SDS011;67706;51.074;-1.796;2023-03-31T02:45:37;15.45;;;2.75;;
78410;SDS011;67706;51.074;-1.796;2023-03-31T02:48:07;14.30;;;2.40;;
78410;SDS011;67706;51.074;-1.796;2023-03-31T02:50:38;14.65;;;2.47;;
78410;SDS011;67706;51.074;-1.796;2023-03-31T02:53:20;13.05;;;2.08;;
78410;SDS011;67706;51.074;-1.796;2023-03-31T02:55:59;15.05;;;3.38;;
78410;SDS011;67706;51.074;-1.796;2023-03-31T02:58:40;19.33;;;3.40;;
78410;SDS011;67706;51.074;-1.796;2023-03-31T03:01:25;16.13;;;2.95;;
78410;SDS011;67706;51.074;-1.796;2023-03-31T03:04:05;24.02;;;3.15;;
78410;SDS011;67706;51.074;-1.796;2023-03-31T03:06:41;10.65;;;2.03;;
78410;SDS011;67706;51.074;-1.796;2023-03-31T03:09:27;15.48;;;2.40;;
78410;SDS011;67706;51.074;-1.796;2023-03-31T03:12:07;17.75;;;2.35;;
78410;SDS011;67706;51.074;-1.796;2023-03-31T03:14:41;15.88;;;2.03;;
78410;SDS011;67706;51.074;-1.796;2023-03-31T03:17:15;18.08;;;2.20;;
78410;SDS011;67706;51.074;-1.796;2023-03-31T03:19:49;17.23;;;2.05;;
78410;SDS011;67706;51.074;-1.796;2023-03-31T03:22:18;14.13;;;2.00;;
78410;SDS011;67706;51.074;-1.796;2023-03-31T03:24:44;14.45;;;1.70;;
78410;SDS011;67706;51.074;-1.796;2023-03-31T03:27:11;15.15;;;2.75;;
78410;SDS011;67706;51.074;-1.796;2023-03-31T03:29:38;11.85;;;1.63;;
78410;SDS011;67706;51.074;-1.796;2023-03-31T03:32:05;14.13;;;2.40;;
78410;SDS011;67706;51.074;-1.796;2023-03-31T03:34:33;19.38;;;3.17;;
78410;SDS011;67706;51.074;-1.796;2023-03-31T03:37:00;18.13;;;2.40;;
78410;SDS011;67706;51.074;-1.796;2023-03-31T03:39:26;12.63;;;2.50;;
78410;SDS011;67706;51.074;-1.796;2023-03-31T03:41:56;15.77;;;2.17;;
78410;SDS011;67706;51.074;-1.796;2023-03-31T03:44:23;8.85;;;1.50;;
78410;SDS011;67706;51.074;-1.796;2023-03-31T03:46:50;12.90;;;2.10;;
78410;SDS011;67706;51.074;-1.796;2023-03-31T03:49:17;14.73;;;2.38;;
78410;SDS011;67706;51.074;-1.796;2023-03-31T03:51:45;15.57;;;2.53;;
78410;SDS011;67706;51.074;-1.796;2023-03-31T03:54:12;19.83;;;3.20;;
78410;SDS011;67706;51.074;-1.796;2023-03-31T03:56:39;12.75;;;2.03;;
78410;SDS011;67706;51.074;-1.796;2023-03-31T03:59:06;17.13;;;2.38;;
78410;SDS011;67706;51.074;-1.796;2023-03-31T04:01:32;9.10;;;1.70;;
78410;SDS011;67706;51.074;-1.796;2023-03-31T04:04:00;13.30;;;2.25;;
78410;SDS011;67706;51.074;-1.796;2023-03-31T04:06:26;9.10;;;1.88;;
78410;SDS011;67706;51.074;-1.796;2023-03-31T04:08:54;6.20;;;1.75;;
78410;SDS011;67706;51.074;-1.796;2023-03-31T04:11:21;9.95;;;1.83;;
78410;SDS011;67706;51.074;-1.796;2023-03-31T04:13:48;16.15;;;1.85;;
78410;SDS011;67706;51.074;-1.796;2023-03-31T04:16:14;11.63;;;1.85;;
78410;SDS011;67706;51.074;-1.796;2023-03-31T04:18:41;5.70;;;1.55;;
78410;SDS011;67706;51.074;-1.796;2023-03-31T04:21:08;17.02;;;1.58;;
78410;SDS011;67706;51.074;-1.796;2023-03-31T04:23:40;13.55;;;1.95;;
78410;SDS011;67706;51.074;-1.796;2023-03-31T04:26:12;15.30;;;1.65;;
78410;SDS011;67706;51.074;-1.796;2023-03-31T04:28:40;6.68;;;1.30;;
78410;SDS011;67706;51.074;-1.796;2023-03-31T04:31:11;8.80;;;1.65;;
78410;SDS011;67706;51.074;-1.796;2023-03-31T04:33:40;11.10;;;2.38;;
78410;SDS011;67706;51.074;-1.796;2023-03-31T04:36:10;11.27;;;1.65;;
78410;SDS011;67706;51.074;-1.796;2023-03-31T04:38:42;12.88;;;1.83;;
78410;SDS011;67706;51.074;-1.796;2023-03-31T04:41:12;14.88;;;2.63;;
78410;SDS011;67706;51.074;-1.796;2023-03-31T04:43:38;11.10;;;1.88;;
78410;SDS011;67706;51.074;-1.796;2023-03-31T04:46:05;15.27;;;2.05;;
78410;SDS011;67706;51.074;-1.796;2023-03-31T04:48:32;13.07;;;3.00;;
78410;SDS011;67706;51.074;-1.796;2023-03-31T04:50:59;10.65;;;1.63;;
78410;SDS011;67706;51.074;-1.796;2023-03-31T04:53:26;12.18;;;1.83;;
78410;SDS011;67706;51.074;-1.796;2023-03-31T04:55:53;10.52;;;1.52;;
78410;SDS011;67706;51.074;-1.796;2023-03-31T04:58:21;9.77;;;1.63;;
78410;SDS011;67706;51.074;-1.796;2023-03-31T05:00:48;11.75;;;2.40;;
78410;SDS011;67706;51.074;-1.796;2023-03-31T05:03:14;15.32;;;2.67;;
78410;SDS011;67706;51.074;-1.796;2023-03-31T05:05:41;14.95;;;1.85;;
78410;SDS011;67706;51.074;-1.796;2023-03-31T05:08:08;11.27;;;2.05;;
78410;SDS011;67706;51.074;-1.796;2023-03-31T05:10:34;11.65;;;1.15;;
78410;SDS011;67706;51.074;-1.796;2023-03-31T05:13:01;13.30;;;2.75;;
78410;SDS011;67706;51.074;-1.796;2023-03-31T05:15:30;8.07;;;1.27;;
78410;SDS011;67706;51.074;-1.796;2023-03-31T05:17:56;15.38;;;2.53;;
78410;SDS011;67706;51.074;-1.796;2023-03-31T05:20:23;15.10;;;2.17;;
78410;SDS011;67706;51.074;-1.796;2023-03-31T05:22:50;13.48;;;2.38;;
78410;SDS011;67706;51.074;-1.796;2023-03-31T05:25:17;16.02;;;2.10;;
78410;SDS011;67706;51.074;-1.796;2023-03-31T05:27:44;15.43;;;2.78;;
78410;SDS011;67706;51.074;-1.796;2023-03-31T05:30:12;11.95;;;2.03;;
78410;SDS011;67706;51.074;-1.796;2023-03-31T05:32:41;12.50;;;1.80;;
78410;SDS011;67706;51.074;-1.796;2023-03-31T05:35:07;12.77;;;2.22;;
78410;SDS011;67706;51.074;-1.796;2023-03-31T05:37:35;11.25;;;1.80;;
78410;SDS011;67706;51.074;-1.796;2023-03-31T05:40:02;11.13;;;2.08;;
78410;SDS011;67706;51.074;-1.796;2023-03-31T05:42:30;13.73;;;2.45;;
78410;SDS011;67706;51.074;-1.796;2023-03-31T05:44:56;12.65;;;1.85;;
78410;SDS011;67706;51.074;-1.796;2023-03-31T05:47:23;13.50;;;2.40;;
78410;SDS011;67706;51.074;-1.796;2023-03-31T05:49:51;14.32;;;1.98;;
78410;SDS011;67706;51.074;-1.796;2023-03-31T05:52:18;13.73;;;2.83;;
78410;SDS011;67706;51.074;-1.796;2023-03-31T05:54:45;10.48;;;1.42;;
78410;SDS011;67706;51.074;-1.796;2023-03-31T05:57:11;13.90;;;1.98;;
78410;SDS011;67706;51.074;-1.796;2023-03-31T05:59:38;12.20;;;1.90;;
78410;SDS011;67706;51.074;-1.796;2023-03-31T06:02:06;8.52;;;1.25;;
78410;SDS011;67706;51.074;-1.796;2023-03-31T06:04:33;8.40;;;2.03;;
78410;SDS011;67706;51.074;-1.796;2023-03-31T06:07:02;11.80;;;2.38;;
78410;SDS011;67706;51.074;-1.796;2023-03-31T06:09:29;16.65;;;2.50;;
78410;SDS011;67706;51.074;-1.796;2023-03-31T06:11:56;18.00;;;2.35;;
78410;SDS011;67706;51.074;-1.796;2023-03-31T06:14:22;10.60;;;2.03;;
78410;SDS011;67706;51.074;-1.796;2023-03-31T06:16:49;15.07;;;1.90;;
78410;SDS011;67706;51.074;-1.796;2023-03-31T06:19:16;9.60;;;1.60;;
78410;SDS011;67706;51.074;-1.796;2023-03-31T06:21:43;15.85;;;2.55;;
78410;SDS011;67706;51.074;-1.796;2023-03-31T06:24:11;6.15;;;1.17;;
78410;SDS011;67706;51.074;-1.796;2023-03-31T06:26:37;9.43;;;1.60;;
78410;SDS011;67706;51.074;-1.796;2023-03-31T06:29:04;9.85;;;1.55;;
78410;SDS011;67706;51.074;-1.796;2023-03-31T06:31:31;11.13;;;1.38;;
78410;SDS011;67706;51.074;-1.796;2023-03-31T06:33:57;12.60;;;1.88;;
78410;SDS011;67706;51.074;-1.796;2023-03-31T06:36:25;14.15;;;1.88;;
78410;SDS011;67706;51.074;-1.796;2023-03-31T06:38:52;7.93;;;1.30;;
78410;SDS011;67706;51.074;-1.796;2023-03-31T06:41:20;8.60;;;1.15;;
78410;SDS011;67706;51.074;-1.796;2023-03-31T06:43:47;9.88;;;1.58;;
78410;SDS011;67706;51.074;-1.796;2023-03-31T06:46:14;10.05;;;1.60;;
78410;SDS011;67706;51.074;-1.796;2023-03-31T06:48:41;8.73;;;1.52;;
78410;SDS011;67706;51.074;-1.796;2023-03-31T06:51:08;12.25;;;1.63;;
78410;SDS011;67706;51.074;-1.796;2023-03-31T06:53:35;8.82;;;1.83;;
78410;SDS011;67706;51.074;-1.796;2023-03-31T06:56:02;12.25;;;2.13;;
78410;SDS011;67706;51.074;-1.796;2023-03-31T06:58:31;5.15;;;1.30;;
78410;SDS011;67706;51.074;-1.796;2023-03-31T07:01:00;11.13;;;1.80;;
78410;SDS011;67706;51.074;-1.796;2023-03-31T07:03:27;9.93;;;1.63;;
78410;SDS011;67706;51.074;-1.796;2023-03-31T07:05:54;5.68;;;1.30;;
78410;SDS011;67706;51.074;-1.796;2023-03-31T07:08:21;7.75;;;1.52;;
78410;SDS011;67706;51.074;-1.796;2023-03-31T07:10:48;10.85;;;1.65;;
78410;SDS011;67706;51.074;-1.796;2023-03-31T07:13:19;8.98;;;1.48;;
78410;SDS011;67706;51.074;-1.796;2023-03-31T07:15:47;7.05;;;1.48;;
78410;SDS011;67706;51.074;-1.796;2023-03-31T07:18:14;17.52;;;1.73;;
78410;SDS011;67706;51.074;-1.796;2023-03-31T07:20:41;1.25;;;0.45;;
78410;SDS011;67706;51.074;-1.796;2023-03-31T07:23:11;4.47;;;0.93;;
78410;SDS011;67706;51.074;-1.796;2023-03-31T07:25:38;4.22;;;1.00;;
78410;SDS011;67706;51.074;-1.796;2023-03-31T07:28:05;4.55;;;0.80;;
78410;SDS011;67706;51.074;-1.796;2023-03-31T07:30:31;3.42;;;0.93;;
78410;SDS011;67706;51.074;-1.796;2023-03-31T07:33:00;13.32;;;6.50;;
78410;SDS011;67706;51.074;-1.796;2023-03-31T07:35:27;3.75;;;0.60;;
78410;SDS011;67706;51.074;-1.796;2023-03-31T07:37:53;5.20;;;0.80;;
78410;SDS011;67706;51.074;-1.796;2023-03-31T07:40:21;4.95;;;0.68;;
78410;SDS011;67706;51.074;-1.796;2023-03-31T07:42:49;4.45;;;0.57;;
78410;SDS011;67706;51.074;-1.796;2023-03-31T07:45:17;4.75;;;0.88;;
78410;SDS011;67706;51.074;-1.796;2023-03-31T07:47:44;3.97;;;1.23;;
78410;SDS011;67706;51.074;-1.796;2023-03-31T07:50:13;2.58;;;0.57;;
78410;SDS011;67706;51.074;-1.796;2023-03-31T07:52:41;2.50;;;0.60;;
78410;SDS011;67706;51.074;-1.796;2023-03-31T07:55:14;3.53;;;0.82;;
78410;SDS011;67706;51.074;-1.796;2023-03-31T07:57:49;2.47;;;1.05;;
78410;SDS011;67706;51.074;-1.796;2023-03-31T08:00:38;3.30;;;0.90;;
78410;SDS011;67706;51.074;-1.796;2023-03-31T08:14:08;3.42;;;0.70;;
78410;SDS011;67706;51.074;-1.796;2023-03-31T08:31:11;3.42;;;0.60;;
78410;SDS011;67706;51.074;-1.796;2023-03-31T08:33:53;5.18;;;0.70;;
78410;SDS011;67706;51.074;-1.796;2023-03-31T08:36:21;2.03;;;0.50;;
78410;SDS011;67706;51.074;-1.796;2023-03-31T08:38:47;2.45;;;0.50;;
78410;SDS011;67706;51.074;-1.796;2023-03-31T08:41:21;4.97;;;0.90;;
78410;SDS011;67706;51.074;-1.796;2023-03-31T08:43:56;2.17;;;0.73;;
78410;SDS011;67706;51.074;-1.796;2023-03-31T08:46:27;0.77;;;0.30;;
78410;SDS011;67706;51.074;-1.796;2023-03-31T08:48:56;3.03;;;0.60;;
78410;SDS011;67706;51.074;-1.796;2023-03-31T08:51:26;3.55;;;1.20;;
78410;SDS011;67706;51.074;-1.796;2023-03-31T08:53:56;0.63;;;0.52;;
78410;SDS011;67706;51.074;-1.796;2023-03-31T08:56:27;3.25;;;0.60;;
78410;SDS011;67706;51.074;-1.796;2023-03-31T08:58:55;4.45;;;1.00;;
78410;SDS011;67706;51.074;-1.796;2023-03-31T09:01:28;2.65;;;0.50;;
78410;SDS011;67706;51.074;-1.796;2023-03-31T09:04:12;3.38;;;0.57;;
78410;SDS011;67706;51.074;-1.796;2023-03-31T09:06:49;1.48;;;0.50;;
78410;SDS011;67706;51.074;-1.796;2023-03-31T09:09:23;1.10;;;0.40;;
78410;SDS011;67706;51.074;-1.796;2023-03-31T09:11:59;1.23;;;0.40;;
78410;SDS011;67706;51.074;-1.796;2023-03-31T09:14:32;1.83;;;0.28;;
78410;SDS011;67706;51.074;-1.796;2023-03-31T09:17:09;3.00;;;0.70;;
78410;SDS011;67706;51.074;-1.796;2023-03-31T09:19:43;1.63;;;0.22;;
78410;SDS011;67706;51.074;-1.796;2023-03-31T09:22:16;0.50;;;0.28;;
78410;SDS011;67706;51.074;-1.796;2023-03-31T09:24:46;1.20;;;0.30;;
78410;SDS011;67706;51.074;-1.796;2023-03-31T09:27:17;1.48;;;0.45;;
78410;SDS011;67706;51.074;-1.796;2023-03-31T09:29:47;2.10;;;0.28;;
78410;SDS011;67706;51.074;-1.796;2023-03-31T09:32:19;4.43;;;0.47;;
78410;SDS011;67706;51.074;-1.796;2023-03-31T09:34:49;2.67;;;0.55;;
78410;SDS011;67706;51.074;-1.796;2023-03-31T09:37:18;2.15;;;0.80;;
78410;SDS011;67706;51.074;-1.796;2023-03-31T09:39:45;1.38;;;0.40;;
78410;SDS011;67706;51.074;-1.796;2023-03-31T09:42:12;4.13;;;0.50;;
78410;SDS011;67706;51.074;-1.796;2023-03-31T09:44:40;2.10;;;0.50;;
78410;SDS011;67706;51.074;-1.796;2023-03-31T09:47:11;0.60;;;0.32;;
78410;SDS011;67706;51.074;-1.796;2023-03-31T09:49:44;1.27;;;0.22;;
78410;SDS011;67706;51.074;-1.796;2023-03-31T09:52:13;0.13;;;0.10;;
78410;SDS011;67706;51.074;-1.796;2023-03-31T09:54:52;0.63;;;0.30;;
78410;SDS011;67706;51.074;-1.796;2023-03-31T09:57:24;1.30;;;0.20;;
78410;SDS011;67706;51.074;-1.796;2023-03-31T09:59:52;1.38;;;0.35;;
78410;SDS011;67706;51.074;-1.796;2023-03-31T10:02:32;1.35;;;0.30;;
78410;SDS011;67706;51.074;-1.796;2023-03-31T10:05:04;0.77;;;0.30;;
78410;SDS011;67706;51.074;-1.796;2023-03-31T10:07:33;0.10;;;0.10;;
78410;SDS011;67706;51.074;-1.796;2023-03-31T10:10:00;0.75;;;0.25;;
78410;SDS011;67706;51.074;-1.796;2023-03-31T10:12:28;0.30;;;0.10;;
78410;SDS011;67706;51.074;-1.796;2023-03-31T10:15:02;2.38;;;0.28;;
78410;SDS011;67706;51.074;-1.796;2023-03-31T10:17:41;0.20;;;0.10;;
78410;SDS011;67706;51.074;-1.796;2023-03-31T10:20:19;0.93;;;0.30;;
78410;SDS011;67706;51.074;-1.796;2023-03-31T10:22:53;0.38;;;0.20;;
78410;SDS011;67706;51.074;-1.796;2023-03-31T10:25:21;1.27;;;0.20;;
78410;SDS011;67706;51.074;-1.796;2023-03-31T10:27:53;1.40;;;0.22;;
78410;SDS011;67706;51.074;-1.796;2023-03-31T10:30:22;1.20;;;0.20;;
78410;SDS011;67706;51.074;-1.796;2023-03-31T10:32:52;0.50;;;0.10;;
78410;SDS011;67706;51.074;-1.796;2023-03-31T10:35:22;0.10;;;0.10;;
78410;SDS011;67706;51.074;-1.796;2023-03-31T10:37:53;0.38;;;0.10;;
78410;SDS011;67706;51.074;-1.796;2023-03-31T10:40:23;1.10;;;0.10;;
78410;SDS011;67706;51.074;-1.796;2023-03-31T10:42:59;0.32;;;0.03;;
78410;SDS011;67706;51.074;-1.796;2023-03-31T10:45:28;0.10;;;0.10;;
78410;SDS011;67706;51.074;-1.796;2023-03-31T10:47:57;0.52;;;0.10;;
78410;SDS011;67706;51.074;-1.796;2023-03-31T10:50:27;1.00;;;0.22;;
78410;SDS011;67706;51.074;-1.796;2023-03-31T10:53:00;0.13;;;0.10;;
78410;SDS011;67706;51.074;-1.796;2023-03-31T10:55:31;0.70;;;0.35;;
78410;SDS011;67706;51.074;-1.796;2023-03-31T10:58:04;0.55;;;0.50;;
78410;SDS011;67706;51.074;-1.796;2023-03-31T11:00:42;0.80;;;0.10;;
78410;SDS011;67706;51.074;-1.796;2023-03-31T11:03:31;0.57;;;0.20;;
78410;SDS011;67706;51.074;-1.796;2023-03-31T11:06:09;0.20;;;0.20;;
78410;SDS011;67706;51.074;-1.796;2023-03-31T11:08:44;1.35;;;0.30;;
78410;SDS011;67706;51.074;-1.796;2023-03-31T11:11:25;0.57;;;0.30;;
78410;SDS011;67706;51.074;-1.796;2023-03-31T11:14:03;1.10;;;0.20;;
78410;SDS011;67706;51.074;-1.796;2023-03-31T11:16:41;0.52;;;0.20;;
78410;SDS011;67706;51.074;-1.796;2023-03-31T11:19:19;0.30;;;0.15;;
78410;SDS011;67706;51.074;-1.796;2023-03-31T11:21:59;0.30;;;0.20;;
78410;SDS011;67706;51.074;-1.796;2023-03-31T11:24:41;0.30;;;0.20;;
78410;SDS011;67706;51.074;-1.796;2023-03-31T11:27:26;1.15;;;0.10;;
78410;SDS011;67706;51.074;-1.796;2023-03-31T11:30:03;0.65;;;0.10;;
78410;SDS011;67706;51.074;-1.796;2023-03-31T11:32:42;0.43;;;0.20;;
78410;SDS011;67706;51.074;-1.796;2023-03-31T11:35:30;2.50;;;0.20;;
78410;SDS011;67706;51.074;-1.796;2023-03-31T11:41:04;0.00;;;0.00;;
78410;SDS011;67706;51.074;-1.796;2023-03-31T11:43:34;0.10;;;0.00;;
78410;SDS011;67706;51.074;-1.796;2023-03-31T11:46:06;1.02;;;0.20;;
78410;SDS011;67706;51.074;-1.796;2023-03-31T11:48:39;0.15;;;0.10;;
78410;SDS011;67706;51.074;-1.796;2023-03-31T11:51:12;0.22;;;0.10;;
78410;SDS011;67706;51.074;-1.796;2023-03-31T11:53:43;0.00;;;0.00;;
78410;SDS011;67706;51.074;-1.796;2023-03-31T11:56:13;0.93;;;0.15;;
78410;SDS011;67706;51.074;-1.796;2023-03-31T11:58:41;0.13;;;0.10;;
78410;SDS011;67706;51.074;-1.796;2023-03-31T12:01:14;0.10;;;0.10;;
78410;SDS011;67706;51.074;-1.796;2023-03-31T12:03:49;0.73;;;0.00;;
78410;SDS011;67706;51.074;-1.796;2023-03-31T12:06:27;0.15;;;0.00;;
78410;SDS011;67706;51.074;-1.796;2023-03-31T12:09:06;0.30;;;0.10;;
78410;SDS011;67706;51.074;-1.796;2023-03-31T12:11:41;0.28;;;0.10;;
78410;SDS011;67706;51.074;-1.796;2023-03-31T12:14:17;0.90;;;0.20;;
78410;SDS011;67706;51.074;-1.796;2023-03-31T12:16:53;0.63;;;0.10;;
78410;SDS011;67706;51.074;-1.796;2023-03-31T12:19:26;0.25;;;0.03;;
78410;SDS011;67706;51.074;-1.796;2023-03-31T12:21:55;0.35;;;0.10;;
78410;SDS011;67706;51.074;-1.796;2023-03-31T12:24:34;0.30;;;0.10;;
78410;SDS011;67706;51.074;-1.796;2023-03-31T12:27:04;0.38;;;0.13;;
78410;SDS011;67706;51.074;-1.796;2023-03-31T12:29:38;0.43;;;0.10;;
78410;SDS011;67706;51.074;-1.796;2023-03-31T12:32:10;0.57;;;0.40;;
78410;SDS011;67706;51.074;-1.796;2023-03-31T12:34:41;0.10;;;0.10;;
78410;SDS011;67706;51.074;-1.796;2023-03-31T12:37:19;0.20;;;0.10;;
78410;SDS011;67706;51.074;-1.796;2023-03-31T12:40:01;1.17;;;0.30;;
78410;SDS011;67706;51.074;-1.796;2023-03-31T12:42:40;0.52;;;0.20;;
78410;SDS011;67706;51.074;-1.796;2023-03-31T12:45:17;0.00;;;0.00;;
78410;SDS011;67706;51.074;-1.796;2023-03-31T12:48:00;1.15;;;0.20;;
78410;SDS011;67706;51.074;-1.796;2023-03-31T12:50:48;0.32;;;0.10;;
78410;SDS011;67706;51.074;-1.796;2023-03-31T12:53:26;0.20;;;0.10;;
78410;SDS011;67706;51.074;-1.796;2023-03-31T12:56:03;0.22;;;0.00;;
78410;SDS011;67706;51.074;-1.796;2023-03-31T12:58:40;0.50;;;0.30;;
78410;SDS011;67706;51.074;-1.796;2023-03-31T13:01:10;0.10;;;0.10;;
78410;SDS011;67706;51.074;-1.796;2023-03-31T13:03:50;0.00;;;0.00;;
78410;SDS011;67706;51.074;-1.796;2023-03-31T13:12:16;0.25;;;0.00;;
78410;SDS011;67706;51.074;-1.796;2023-03-31T13:14:46;0.38;;;0.10;;
78410;SDS011;67706;51.074;-1.796;2023-03-31T13:17:28;0.10;;;0.10;;
78410;SDS011;67706;51.074;-1.796;2023-03-31T13:20:10;0.32;;;0.10;;
78410;SDS011;67706;51.074;-1.796;2023-03-31T13:30:53;0.52;;;0.10;;
78410;SDS011;67706;51.074;-1.796;2023-03-31T13:36:21;0.57;;;0.08;;
78410;SDS011;67706;51.074;-1.796;2023-03-31T13:39:15;0.17;;;0.17;;
78410;SDS011;67706;51.074;-1.796;2023-03-31T13:41:57;0.03;;;0.03;;
78410;SDS011;67706;51.074;-1.796;2023-03-31T13:44:44;0.30;;;0.15;;
78410;SDS011;67706;51.074;-1.796;2023-03-31T13:47:29;0.00;;;0.00;;
78410;SDS011;67706;51.074;-1.796;2023-03-31T13:50:11;0.30;;;0.10;;
78410;SDS011;67706;51.074;-1.796;2023-03-31T13:52:46;0.03;;;0.03;;
78410;SDS011;67706;51.074;-1.796;2023-03-31T13:55:37;0.05;;;0.05;;
78410;SDS011;67706;51.074;-1.796;2023-03-31T13:58:25;1.40;;;0.20;;
78410;SDS011;67706;51.074;-1.796;2023-03-31T14:01:38;0.45;;;0.10;;
78410;SDS011;67706;51.074;-1.796;2023-03-31T14:04:15;1.35;;;0.20;;
78410;SDS011;67706;51.074;-1.796;2023-03-31T14:06:55;0.40;;;0.30;;
78410;SDS011;67706;51.074;-1.796;2023-03-31T14:09:26;0.32;;;0.10;;
78410;SDS011;67706;51.074;-1.796;2023-03-31T14:11:57;2.33;;;0.20;;
78410;SDS011;67706;51.074;-1.796;2023-03-31T14:14:24;3.33;;;0.20;;
78410;SDS011;67706;51.074;-1.796;2023-03-31T14:16:54;0.60;;;0.20;;
78410;SDS011;67706;51.074;-1.796;2023-03-31T14:19:36;1.92;;;0.20;;
78410;SDS011;67706;51.074;-1.796;2023-03-31T14:22:18;1.75;;;0.22;;
78410;SDS011;67706;51.074;-1.796;2023-03-31T14:24:54;0.35;;;0.20;;
78410;SDS011;67706;51.074;-1.796;2023-03-31T14:27:32;0.28;;;0.10;;
78410;SDS011;67706;51.074;-1.796;2023-03-31T14:30:11;2.08;;;0.20;;
78410;SDS011;67706;51.074;-1.796;2023-03-31T14:32:48;1.33;;;0.20;;
78410;SDS011;67706;51.074;-1.796;2023-03-31T14:35:30;0.60;;;0.35;;
78410;SDS011;67706;51.074;-1.796;2023-03-31T14:38:03;1.25;;;0.40;;
78410;SDS011;67706;51.074;-1.796;2023-03-31T14:40:35;2.45;;;0.40;;
78410;SDS011;67706;51.074;-1.796;2023-03-31T14:43:16;0.30;;;0.20;;
78410;SDS011;67706;51.074;-1.796;2023-03-31T14:45:45;1.75;;;0.35;;
78410;SDS011;67706;51.074;-1.796;2023-03-31T14:48:13;0.47;;;0.30;;
78410;SDS011;67706;51.074;-1.796;2023-03-31T14:50:41;1.23;;;0.73;;
78410;SDS011;67706;51.074;-1.796;2023-03-31T14:53:12;2.65;;;0.40;;
78410;SDS011;67706;51.074;-1.796;2023-03-31T14:55:40;2.17;;;0.60;;
78410;SDS011;67706;51.074;-1.796;2023-03-31T14:58:10;0.90;;;0.40;;
78410;SDS011;67706;51.074;-1.796;2023-03-31T15:00:40;0.77;;;0.40;;
78410;SDS011;67706;51.074;-1.796;2023-03-31T15:03:07;3.13;;;0.40;;
78410;SDS011;67706;51.074;-1.796;2023-03-31T15:05:40;1.17;;;0.40;;
78410;SDS011;67706;51.074;-1.796;2023-03-31T15:08:10;1.13;;;0.60;;
78410;SDS011;67706;51.074;-1.796;2023-03-31T15:10:41;0.57;;;0.20;;
78410;SDS011;67706;51.074;-1.796;2023-03-31T15:13:11;0.98;;;0.50;;
78410;SDS011;67706;51.074;-1.796;2023-03-31T15:15:42;0.28;;;0.20;;
78410;SDS011;67706;51.074;-1.796;2023-03-31T15:18:10;1.08;;;0.20;;
78410;SDS011;67706;51.074;-1.796;2023-03-31T15:20:39;0.75;;;0.32;;
78410;SDS011;67706;51.074;-1.796;2023-03-31T15:23:17;1.63;;;0.20;;
78410;SDS011;67706;51.074;-1.796;2023-03-31T15:25:48;2.17;;;0.63;;
78410;SDS011;67706;51.074;-1.796;2023-03-31T15:28:20;0.40;;;0.10;;
78410;SDS011;67706;51.074;-1.796;2023-03-31T15:30:48;0.98;;;0.30;;
78410;SDS011;67706;51.074;-1.796;2023-03-31T15:33:17;1.08;;;0.20;;
78410;SDS011;67706;51.074;-1.796;2023-03-31T15:35:48;1.95;;;0.30;;
78410;SDS011;67706;51.074;-1.796;2023-03-31T15:38:15;0.50;;;0.25;;
78410;SDS011;67706;51.074;-1.796;2023-03-31T15:40:43;0.38;;;0.20;;
78410;SDS011;67706;51.074;-1.796;2023-03-31T15:43:15;0.38;;;0.38;;
78410;SDS011;67706;51.074;-1.796;2023-03-31T15:45:45;0.63;;;0.10;;
78410;SDS011;67706;51.074;-1.796;2023-03-31T15:48:15;0.30;;;0.10;;
78410;SDS011;67706;51.074;-1.796;2023-03-31T15:50:45;0.52;;;0.20;;